Time;durP1;ratioP1;P1;durP2;ratioP2;P2;SDS_P1;SDS_P2;PMS_P1;PMS_P2;Temp;Humidity;BMP_temperature;BMP_pressure;BME280_temperature;BME280_humidity;BME280_pressure;Samples;Min_cycle;Max_cycle;Signal;HPM_P1;HPM_P2
2022/04/02 00:01:42;;;;;;;109.35;98.75;;;4.30;66.10;;;;;;5033873;28;20121;-74
2022/04/02 00:04:09;;;;;;;109.82;98.95;;;4.20;66.00;;;;;;5034863;28;20054;-73
2022/04/02 00:06:38;;;;;;;109.45;98.85;;;4.20;66.10;;;;;;5034756;28;20112;-74
2022/04/02 00:09:05;;;;;;;107.93;97.32;;;4.20;66.30;;;;;;5034824;28;20058;-74
2022/04/02 00:11:33;;;;;;;108.60;97.90;;;4.10;66.10;;;;;;5035172;28;20478;-74
2022/04/02 00:14:01;;;;;;;109.95;99.20;;;4.10;66.10;;;;;;5033847;28;20500;-74
2022/04/02 00:16:28;;;;;;;107.95;97.45;;;4.10;66.50;;;;;;5033890;28;20052;-74
2022/04/02 00:18:55;;;;;;;109.82;99.18;;;4.10;66.60;;;;;;5033435;28;20046;-74
2022/04/02 00:21:22;;;;;;;108.65;97.82;;;4.00;66.60;;;;;;5033325;28;20130;-74
2022/04/02 00:23:50;;;;;;;109.07;98.03;;;4.00;66.80;;;;;;5016804;28;20405;-74
2022/04/02 00:26:19;;;;;;;108.88;98.07;;;4.00;66.80;;;;;;5033954;28;20060;-74
2022/04/02 00:28:48;;;;;;;108.35;97.47;;;4.00;66.80;;;;;;5016946;28;20097;-74
2022/04/02 00:31:16;;;;;;;109.10;98.53;;;4.00;66.90;;;;;;5016764;28;20126;-73
2022/04/02 00:33:45;;;;;;;107.78;97.25;;;4.00;66.90;;;;;;5033594;28;20224;-74
2022/04/02 00:36:12;;;;;;;108.25;97.63;;;4.00;67.00;;;;;;5034646;28;20409;-73
2022/04/02 00:38:40;;;;;;;108.45;97.82;;;4.00;66.90;;;;;;5032969;28;20086;-74
2022/04/02 00:41:09;;;;;;;108.60;97.95;;;4.00;67.00;;;;;;5016785;28;20073;-74
2022/04/02 00:43:38;;;;;;;107.88;97.18;;;4.00;67.10;;;;;;5034842;28;20509;-73
2022/04/02 00:46:07;;;;;;;108.00;97.32;;;4.00;67.10;;;;;;5033153;28;20038;-74
2022/04/02 00:48:34;;;;;;;109.05;98.25;;;4.00;67.30;;;;;;5016486;28;20423;-73
2022/04/02 00:51:03;;;;;;;;;;;4.00;67.40;;;;;;5017190;28;20505;-74
2022/04/02 00:53:32;;;;;;;108.18;97.28;;;4.00;67.70;;;;;;5017136;28;19925;-73
2022/04/02 00:56:00;;;;;;;108.60;97.93;;;4.00;67.60;;;;;;5016005;28;20050;-74
2022/04/02 00:58:29;;;;;;;110.05;99.35;;;4.00;67.70;;;;;;5032540;28;20104;-74
2022/04/02 01:01:03;;;;;;;106.88;96.28;;;3.90;67.70;;;;;;5034584;28;20073;-74
2022/04/02 01:03:38;;;;;;;107.75;97.13;;;3.90;67.80;;;;;;5014923;28;20053;-74
2022/04/02 01:06:05;;;;;;;109.28;98.60;;;3.90;67.80;;;;;;5032871;28;20071;-74
2022/04/02 01:08:37;;;;;;;108.07;97.45;;;3.90;67.90;;;;;;5032818;28;20045;-73
2022/04/02 01:11:05;;;;;;;108.05;97.32;;;3.90;67.90;;;;;;5015925;28;20046;-74
2022/04/02 01:13:38;;;;;;;107.97;97.22;;;3.90;67.90;;;;;;5032757;28;20041;-74
2022/04/02 01:16:08;;;;;;;109.82;99.00;;;3.90;68.10;;;;;;5032927;28;20844;-74
2022/04/02 01:18:38;;;;;;;107.50;96.88;;;3.90;68.20;;;;;;5016113;28;20136;-74
2022/04/02 01:21:05;;;;;;;109.10;98.40;;;3.90;68.30;;;;;;5032776;28;20042;-74
2022/04/02 01:23:39;;;;;;;108.82;98.05;;;3.80;68.30;;;;;;5016124;28;20184;-74
2022/04/02 01:26:12;;;;;;;108.00;97.40;;;3.80;68.40;;;;;;5032904;28;20046;-74
2022/04/02 01:28:53;;;;;;;108.53;97.82;;;3.80;68.60;;;;;;5016283;28;20496;-75
2022/04/02 01:31:23;;;;;;;108.07;97.37;;;3.80;68.70;;;;;;5032812;28;20057;-73
2022/04/02 01:33:53;;;;;;;108.90;98.10;;;3.80;68.50;;;;;;5016222;28;20046;-73
2022/04/02 01:36:21;;;;;;;107.65;96.95;;;3.80;68.60;;;;;;5016220;28;20046;-73
2022/04/02 01:38:58;;;;;;;107.78;96.97;;;3.80;68.70;;;;;;5032582;28;20060;-74
2022/04/02 01:41:28;;;;;;;108.63;97.82;;;3.80;68.80;;;;;;5015673;28;20623;-74
2022/04/02 01:43:56;;;;;;;108.57;97.88;;;3.70;68.80;;;;;;5032563;28;20101;-74
2022/04/02 01:46:23;;;;;;;107.82;97.22;;;3.70;68.90;;;;;;5033790;28;20133;-73
2022/04/02 01:48:53;;;;;;;108.30;97.43;;;3.70;68.90;;;;;;5015467;28;20049;-73
2022/04/02 01:51:20;;;;;;;108.28;97.35;;;3.70;69.00;;;;;;5015907;28;20520;-74
2022/04/02 01:53:47;;;;;;;108.43;97.82;;;3.70;69.00;;;;;;5016071;28;20128;-74
2022/04/02 01:56:16;;;;;;;108.88;98.28;;;3.70;69.10;;;;;;5015564;28;20050;-74
2022/04/02 01:59:03;;;;;;;108.45;97.47;;;3.70;69.20;;;;;;5015627;28;20046;-74
2022/04/02 02:01:32;;;;;;;108.18;97.38;;;3.70;69.20;;;;;;5015580;28;21031;-74
2022/04/02 02:03:59;;;;;;;108.50;97.72;;;3.70;69.30;;;;;;5032138;28;20057;-73
2022/04/02 02:06:27;;;;;;;109.78;98.88;;;3.60;69.10;;;;;;5015783;28;20117;-74
2022/04/02 02:08:55;;;;;;;107.93;97.32;;;3.60;69.30;;;;;;5031990;28;20046;-74
2022/04/02 02:11:44;;;;;;;108.78;98.07;;;3.60;69.40;;;;;;5015692;28;20638;-74
2022/04/02 02:14:34;;;;;;;108.55;97.85;;;3.60;69.40;;;;;;5031588;28;20050;-73
2022/04/02 02:17:15;;;;;;;108.68;97.93;;;3.60;69.50;;;;;;5031810;28;20050;-74
2022/04/02 02:19:43;;;;;;;107.18;96.60;;;3.60;69.60;;;;;;5032251;28;20133;-74
2022/04/02 02:22:11;;;;;;;109.15;98.35;;;3.60;69.80;;;;;;5033459;28;20493;-74
2022/04/02 02:24:38;;;;;;;108.03;97.22;;;3.60;70.00;;;;;;5031951;28;20072;-73
2022/04/02 02:27:08;;;;;;;109.90;99.13;;;3.60;70.10;;;;;;5015307;28;20046;-74
2022/04/02 02:29:35;;;;;;;107.80;97.03;;;3.60;70.10;;;;;;5032053;28;20062;-74
2022/04/02 02:32:31;;;;;;;108.28;97.43;;;3.60;70.20;;;;;;5030385;28;20137;-74
2022/04/02 02:37:49;;;;;;;109.82;98.90;;;3.60;70.30;;;;;;5034873;28;20054;-74
2022/04/02 02:40:16;;;;;;;107.70;97.03;;;3.50;70.30;;;;;;5018798;28;20133;-73
2022/04/02 02:42:45;;;;;;;109.07;98.07;;;3.50;70.30;;;;;;5018448;28;20133;-73
2022/04/02 02:45:32;;;;;;;108.93;98.25;;;3.60;70.50;;;;;;5018725;28;20052;-73
2022/04/02 02:48:02;;;;;;;108.53;97.82;;;3.50;70.50;;;;;;5034574;28;20105;-74
2022/04/02 02:50:42;;;;;;;109.03;98.25;;;3.50;70.60;;;;;;5018249;28;20488;-73
2022/04/02 02:53:11;;;;;;;108.03;97.22;;;3.50;70.60;;;;;;5018525;28;20165;-73
2022/04/02 02:56:04;;;;;;;107.57;96.78;;;3.40;70.80;;;;;;5020326;28;20511;-74
2022/04/02 02:58:33;;;;;;;109.20;98.10;;;3.40;71.00;;;;;;5034693;28;20054;-73
2022/04/02 03:01:00;;;;;;;108.95;98.07;;;3.40;71.00;;;;;;5018338;28;20046;-74
2022/04/02 03:03:31;;;;;;;110.20;99.18;;;3.40;71.30;;;;;;5034364;28;20050;-73
2022/04/02 03:06:01;;;;;;;109.60;98.75;;;3.40;71.40;;;;;;5018376;28;20435;-73
2022/04/02 03:08:30;;;;;;;109.57;98.60;;;3.40;71.50;;;;;;5034684;28;20133;-73
2022/04/02 03:11:02;;;;;;;110.10;99.20;;;3.40;71.60;;;;;;5018403;28;20097;-74
2022/04/02 03:13:33;;;;;;;109.97;99.18;;;3.40;71.70;;;;;;5034934;28;20058;-74
2022/04/02 03:16:12;;;;;;;109.43;98.28;;;3.40;71.90;;;;;;5018126;28;20486;-73
2022/04/02 03:18:58;;;;;;;109.05;97.97;;;3.40;72.00;;;;;;5034096;28;20762;-74
2022/04/02 03:21:27;;;;;;;108.40;97.57;;;3.40;72.00;;;;;;5035082;28;20061;-73
2022/04/02 03:23:54;;;;;;;109.03;98.22;;;3.30;72.10;;;;;;5017904;28;20042;-73
2022/04/02 03:26:22;;;;;;;108.25;97.55;;;3.40;72.20;;;;;;5018041;28;20042;-73
2022/04/02 03:28:53;;;;;;;109.63;98.65;;;3.40;72.30;;;;;;5034070;28;20050;-73
2022/04/02 03:31:23;;;;;;;108.03;97.32;;;3.40;72.40;;;;;;5017440;28;20914;-73
2022/04/02 03:33:52;;;;;;;108.50;97.75;;;3.40;72.40;;;;;;5017845;28;20070;-73
2022/04/02 03:36:19;;;;;;;109.40;98.22;;;3.40;72.40;;;;;;5034428;28;20590;-73
2022/04/02 03:38:46;;;;;;;109.28;98.28;;;3.40;72.40;;;;;;5021121;28;20057;-73
2022/04/02 03:41:16;;;;;;;109.47;98.25;;;3.40;72.40;;;;;;5014471;28;20086;-74
2022/04/02 03:43:46;;;;;;;110.32;99.32;;;3.40;72.60;;;;;;4997154;28;20043;-74
2022/04/02 03:49:04;;;;;;;108.30;97.15;;;3.40;72.70;;;;;;5014213;28;20061;-73
2022/04/02 03:51:31;;;;;;;108.97;97.90;;;3.30;72.70;;;;;;4997744;28;20129;-73
2022/04/02 03:53:59;;;;;;;107.75;96.97;;;3.30;72.70;;;;;;5014432;28;20047;-73
2022/04/02 03:56:30;;;;;;;108.40;97.60;;;3.30;72.80;;;;;;4998421;28;20063;-73
2022/04/02 03:59:01;;;;;;;108.63;97.82;;;3.30;72.80;;;;;;4997544;28;20105;-73
2022/04/02 04:01:30;;;;;;;110.40;99.32;;;3.30;72.90;;;;;;4998295;28;20113;-73
2022/04/02 04:03:57;;;;;;;107.82;96.97;;;3.30;73.00;;;;;;4997198;28;20074;-73
2022/04/02 04:06:25;;;;;;;107.47;96.75;;;3.30;73.00;;;;;;4997971;28;20152;-74
2022/04/02 04:08:53;;;;;;;108.13;97.32;;;3.30;73.20;;;;;;4997489;28;20061;-74
2022/04/02 04:11:20;;;;;;;108.70;97.90;;;3.20;73.20;;;;;;5015183;28;20084;-73
2022/04/02 04:13:51;;;;;;;107.40;96.68;;;3.20;73.50;;;;;;4997795;28;20580;-74
2022/04/02 04:16:18;;;;;;;108.90;97.95;;;3.20;73.40;;;;;;5013720;28;20826;-73
2022/04/02 04:18:47;;;;;;;108.40;97.53;;;3.20;73.50;;;;;;4997469;28;20051;-73
2022/04/02 04:21:14;;;;;;;107.57;96.72;;;3.20;73.70;;;;;;4997353;28;20046;-74
2022/04/02 04:23:42;;;;;;;107.88;96.90;;;3.20;73.90;;;;;;4996945;28;20043;-73
2022/04/02 04:26:11;;;;;;;107.90;96.88;;;3.10;73.80;;;;;;4997255;28;20052;-74
2022/04/02 04:28:41;;;;;;;108.30;97.53;;;3.10;73.80;;;;;;4997432;28;20527;-73
2022/04/02 04:31:10;;;;;;;108.00;97.22;;;3.10;74.00;;;;;;5013511;28;20046;-73
2022/04/02 04:33:38;;;;;;;107.97;97.28;;;3.10;74.10;;;;;;5013683;28;20117;-73
2022/04/02 04:36:07;;;;;;;108.03;97.00;;;3.10;74.20;;;;;;4997296;28;20046;-74
2022/04/02 04:38:34;;;;;;;106.90;96.15;;;3.10;74.40;;;;;;5013536;28;20105;-73
2022/04/02 04:41:06;;;;;;;107.80;97.10;;;3.10;74.40;;;;;;4997512;28;20061;-74
2022/04/02 04:43:35;;;;;;;;;;;3.10;74.50;;;;;;4997891;28;20057;-73
2022/04/02 04:46:03;;;;;;;108.53;97.53;;;3.10;74.20;;;;;;4997480;28;19996;-73
2022/04/02 04:48:31;;;;;;;108.60;97.65;;;3.00;74.40;;;;;;5014521;28;20061;-73
2022/04/02 04:51:00;;;;;;;108.65;97.88;;;3.10;74.60;;;;;;4997147;28;20484;-74
2022/04/02 04:53:31;;;;;;;108.72;97.72;;;3.00;74.70;;;;;;5013358;28;20068;-73
2022/04/02 04:55:58;;;;;;;109.35;98.55;;;3.00;74.80;;;;;;4996005;28;20053;-73
2022/04/02 04:58:27;;;;;;;109.55;98.43;;;3.00;75.00;;;;;;4996476;28;20520;-73
2022/04/02 05:00:59;;;;;;;111.15;100.22;;;3.00;75.00;;;;;;4996393;28;20572;-73
2022/04/02 05:03:28;;;;;;;109.25;98.25;;;3.00;75.10;;;;;;4996201;28;20039;-73
2022/04/02 05:05:56;;;;;;;108.95;98.15;;;3.00;75.30;;;;;;5012895;28;20085;-74
2022/04/02 05:08:25;;;;;;;109.32;98.20;;;3.00;75.40;;;;;;5012686;28;20057;-74
2022/04/02 05:10:56;;;;;;;108.47;97.85;;;3.00;75.90;;;;;;5012705;28;20054;-73
2022/04/02 05:13:29;;;;;;;109.15;98.35;;;3.00;75.60;;;;;;4996384;28;20049;-73
2022/04/02 05:15:58;;;;;;;109.78;98.80;;;3.00;75.70;;;;;;4996439;28;20047;-73
2022/04/02 05:18:27;;;;;;;110.22;99.13;;;2.90;75.80;;;;;;5001215;28;20053;-73
2022/04/02 05:20:54;;;;;;;108.70;98.10;;;2.90;76.00;;;;;;5006716;28;20131;-73
2022/04/02 05:23:22;;;;;;;110.15;99.43;;;2.90;76.10;;;;;;5022613;28;20058;-74
2022/04/02 05:25:53;;;;;;;108.90;98.03;;;2.90;76.40;;;;;;5006942;28;20054;-73
2022/04/02 05:28:24;;;;;;;107.57;96.88;;;2.90;76.50;;;;;;5022576;28;20050;-73
2022/04/02 05:30:51;;;;;;;109.00;97.90;;;2.90;76.70;;;;;;5029551;28;20601;-74
2022/04/02 05:33:19;;;;;;;109.13;98.07;;;2.90;76.80;;;;;;5032492;28;20054;-73
2022/04/02 05:35:46;;;;;;;109.13;98.32;;;2.90;77.00;;;;;;5032347;28;20061;-73
2022/04/02 05:38:13;;;;;;;109.18;97.97;;;2.90;77.20;;;;;;5033448;28;20050;-73
2022/04/02 05:40:40;;;;;;;109.65;98.65;;;2.90;77.30;;;;;;5032849;28;20077;-73
2022/04/02 05:43:07;;;;;;;110.13;99.05;;;2.80;77.40;;;;;;5032409;28;20057;-73
2022/04/02 05:45:36;;;;;;;108.50;97.43;;;2.80;77.80;;;;;;5015837;28;20042;-73
2022/04/02 05:48:03;;;;;;;108.82;98.13;;;2.80;78.00;;;;;;5033051;28;20053;-74
2022/04/02 05:50:31;;;;;;;108.82;98.05;;;2.80;78.50;;;;;;5032211;28;20050;-73
2022/04/02 05:52:59;;;;;;;108.22;97.32;;;2.80;78.80;;;;;;5032102;28;20945;-73
2022/04/02 05:55:28;;;;;;;;;;;2.80;79.30;;;;;;5034091;28;20053;-73
2022/04/02 05:57:55;;;;;;;108.60;97.57;;;2.70;79.70;;;;;;5033667;28;19925;-73
2022/04/02 06:00:22;;;;;;;108.13;97.35;;;2.70;79.80;;;;;;5032379;28;20136;-74
2022/04/02 06:02:51;;;;;;;107.90;97.10;;;2.70;80.30;;;;;;5033213;28;20057;-73
2022/04/02 06:05:18;;;;;;;108.75;97.75;;;2.70;80.70;;;;;;5032069;28;20050;-73
2022/04/02 06:07:44;;;;;;;110.03;99.13;;;2.70;81.10;;;;;;5033043;28;20078;-73
2022/04/02 06:10:12;;;;;;;109.38;98.43;;;2.70;81.60;;;;;;5036873;28;20064;-73
2022/04/02 06:12:39;;;;;;;109.50;98.50;;;2.70;82.00;;;;;;5028263;28;20050;-74
2022/04/02 06:15:08;;;;;;;110.05;98.78;;;2.80;82.30;;;;;;5027914;28;20054;-74
2022/04/02 06:17:35;;;;;;;108.88;98.07;;;2.80;82.80;;;;;;5026110;28;20525;-77
2022/04/02 06:20:04;;;;;;;112.28;101.18;;;2.80;83.00;;;;;;5035069;28;20054;-76
2022/04/02 06:22:31;;;;;;;109.13;98.20;;;2.80;83.40;;;;;;5033105;28;20056;-76
2022/04/02 06:24:58;;;;;;;109.57;98.30;;;2.80;83.90;;;;;;5036145;28;20061;-75
2022/04/02 06:27:27;;;;;;;108.90;98.05;;;2.80;84.10;;;;;;5034435;28;20058;-74
2022/04/02 06:29:54;;;;;;;109.40;98.60;;;2.80;84.40;;;;;;5023822;28;20042;-74
2022/04/02 06:32:22;;;;;;;108.20;97.40;;;2.80;84.80;;;;;;5025206;28;20057;-74
2022/04/02 06:34:49;;;;;;;110.10;99.00;;;2.90;85.00;;;;;;5030954;28;20060;-73
2022/04/02 06:37:18;;;;;;;108.72;97.82;;;2.90;85.20;;;;;;5021370;28;20054;-73
2022/04/02 06:39:45;;;;;;;109.53;98.38;;;2.90;85.50;;;;;;5033312;28;20085;-73
2022/04/02 06:42:12;;;;;;;108.97;97.88;;;2.90;86.00;;;;;;5027807;28;20055;-73
2022/04/02 06:44:44;;;;;;;110.53;99.22;;;3.00;86.10;;;;;;5010766;28;20108;-73
2022/04/02 06:47:11;;;;;;;109.10;97.88;;;3.00;86.30;;;;;;5029888;28;20137;-74
2022/04/02 06:49:39;;;;;;;109.78;98.78;;;3.00;86.40;;;;;;5026798;28;20056;-73
2022/04/02 06:52:22;;;;;;;106.57;95.78;;;3.00;86.80;;;;;;5018366;28;20081;-74
2022/04/02 06:54:50;;;;;;;109.28;98.05;;;3.00;87.10;;;;;;5025499;28;20060;-74
2022/04/02 06:57:20;;;;;;;;;;;3.00;87.00;;;;;;5025482;28;20064;-74
2022/04/02 06:59:48;;;;;;;109.00;97.90;;;3.10;86.90;;;;;;5024884;28;20081;-74
2022/04/02 07:02:15;;;;;;;108.95;97.93;;;3.10;86.70;;;;;;5023207;28;20484;-74
2022/04/02 07:04:43;;;;;;;108.72;97.88;;;3.10;87.00;;;;;;5021986;28;20137;-75
2022/04/02 07:07:11;;;;;;;111.07;99.95;;;3.20;87.20;;;;;;5022220;28;20060;-74
2022/04/02 07:09:40;;;;;;;109.97;98.63;;;3.20;87.30;;;;;;5028992;28;20911;-75
2022/04/02 07:12:08;;;;;;;109.95;98.93;;;3.30;87.50;;;;;;5028940;28;20584;-74
2022/04/02 07:14:35;;;;;;;108.50;97.40;;;3.30;87.50;;;;;;5029789;28;20061;-76
2022/04/02 07:17:02;;;;;;;112.13;101.03;;;3.30;87.40;;;;;;5031259;28;20058;-75
2022/04/02 07:19:31;;;;;;;109.13;98.03;;;3.40;87.60;;;;;;5033833;28;20124;-75
2022/04/02 07:21:58;;;;;;;109.03;98.15;;;3.40;87.80;;;;;;5033736;28;20483;-74
2022/04/02 07:24:25;;;;;;;109.07;98.05;;;3.50;87.90;;;;;;5027912;28;20086;-74
2022/04/02 07:26:56;;;;;;;110.25;99.05;;;3.50;88.10;;;;;;5026314;28;20100;-75
2022/04/02 07:29:26;;;;;;;109.40;98.38;;;3.60;88.10;;;;;;5034622;28;20061;-75
2022/04/02 07:31:54;;;;;;;109.82;98.65;;;3.60;88.20;;;;;;5017341;28;20053;-75
2022/04/02 07:34:23;;;;;;;109.20;98.22;;;3.60;88.30;;;;;;5017086;28;20084;-74
2022/04/02 07:37:04;;;;;;;109.32;98.07;;;3.70;88.50;;;;;;5033322;28;20057;-74
2022/04/02 07:39:37;;;;;;;108.78;97.85;;;3.70;88.60;;;;;;5048658;28;20570;-74
2022/04/02 07:42:10;;;;;;;108.35;97.53;;;3.80;88.50;;;;;;5033771;28;20125;-76
2022/04/02 07:44:50;;;;;;;108.57;97.57;;;3.80;88.50;;;;;;5008744;28;20057;-73
2022/04/02 07:47:21;;;;;;;109.15;98.43;;;3.90;88.40;;;;;;5024638;28;20262;-73
2022/04/02 07:49:50;;;;;;;109.07;98.18;;;3.90;88.50;;;;;;5028547;28;20050;-73
2022/04/02 07:52:17;;;;;;;109.32;98.32;;;4.00;88.50;;;;;;5033778;28;20137;-73
2022/04/02 07:54:45;;;;;;;109.40;98.68;;;4.00;88.70;;;;;;5033117;28;20104;-73
2022/04/02 07:57:15;;;;;;;111.00;100.05;;;4.10;88.40;;;;;;5033270;28;20046;-74
2022/04/02 07:59:58;;;;;;;109.32;98.43;;;4.10;88.40;;;;;;5014906;28;20042;-75
2022/04/02 08:02:37;;;;;;;108.45;97.40;;;4.10;88.20;;;;;;5033752;28;20141;-75
2022/04/02 08:05:07;;;;;;;108.10;97.35;;;4.20;87.90;;;;;;5034935;28;20058;-76
2022/04/02 08:07:35;;;;;;;108.85;97.93;;;4.30;87.90;;;;;;5032934;28;20060;-76
2022/04/02 08:10:06;;;;;;;110.80;99.70;;;4.30;87.70;;;;;;5032401;28;20062;-76
2022/04/02 08:12:36;;;;;;;109.32;98.43;;;4.40;87.60;;;;;;5016967;28;20105;-75
2022/04/02 08:15:07;;;;;;;109.10;98.13;;;4.50;87.50;;;;;;5025028;28;20081;-75
2022/04/02 08:17:35;;;;;;;109.43;98.45;;;4.50;87.30;;;;;;5028962;28;20132;-75
2022/04/02 08:20:03;;;;;;;109.10;98.40;;;4.50;86.90;;;;;;5008819;28;20527;-77
2022/04/02 08:22:31;;;;;;;108.75;97.95;;;4.60;86.50;;;;;;5014170;28;20046;-76
2022/04/02 08:24:59;;;;;;;110.32;99.43;;;4.60;86.00;;;;;;5032279;28;20077;-75
2022/04/02 08:27:35;;;;;;;110.47;99.68;;;4.70;85.50;;;;;;4976288;28;20525;-75
2022/04/02 08:30:06;;;;;;;107.65;97.07;;;4.70;85.10;;;;;;5032342;28;20144;-76
2022/04/02 08:32:54;;;;;;;107.25;96.55;;;4.80;84.70;;;;;;5031166;28;20165;-76
2022/04/02 08:35:25;;;;;;;108.07;97.47;;;4.80;84.20;;;;;;5033377;28;20530;-76
2022/04/02 08:38:04;;;;;;;107.90;97.30;;;4.80;83.80;;;;;;5033108;28;20046;-76
2022/04/02 08:40:47;;;;;;;110.25;99.38;;;4.80;83.30;;;;;;5047688;28;20058;-73
2022/04/02 08:43:52;;;;;;;109.15;98.55;;;4.90;83.30;;;;;;5034773;28;20052;-74
2022/04/02 08:46:35;;;;;;;108.22;97.53;;;4.90;83.50;;;;;;5033607;28;20116;-73
2022/04/02 08:49:22;;;;;;;109.40;98.60;;;4.90;83.50;;;;;;5033299;28;20484;-73
2022/04/02 08:52:12;;;;;;;109.20;98.25;;;4.90;83.40;;;;;;5019655;28;20085;-73
2022/04/02 08:54:41;;;;;;;109.25;98.15;;;4.90;83.30;;;;;;5018640;28;20060;-73
2022/04/02 08:57:23;;;;;;;112.20;101.32;;;5.00;83.30;;;;;;5024363;28;20088;-73
2022/04/02 09:00:03;;;;;;;108.40;97.70;;;5.00;83.40;;;;;;5027332;28;20060;-74
2022/04/02 09:03:03;;;;;;;109.45;98.75;;;5.00;83.60;;;;;;5029300;28;20057;-73
2022/04/02 09:05:42;;;;;;;109.15;98.65;;;5.00;83.50;;;;;;5024911;28;20068;-73
2022/04/02 09:08:35;;;;;;;109.15;98.18;;;5.00;83.50;;;;;;5020512;28;20125;-73
2022/04/02 09:11:24;;;;;;;108.13;97.63;;;5.00;83.40;;;;;;5013196;28;20054;-73
2022/04/02 09:14:30;;;;;;;108.32;97.85;;;5.00;83.20;;;;;;5014224;28;20068;-73
2022/04/02 09:17:24;;;;;;;109.10;98.32;;;5.00;82.80;;;;;;4987745;28;20046;-74
2022/04/02 09:19:53;;;;;;;110.18;99.10;;;5.00;82.70;;;;;;5014206;28;20054;-73
2022/04/02 09:22:33;;;;;;;108.85;97.85;;;5.00;82.70;;;;;;5012996;28;20138;-73
2022/04/02 09:25:42;;;;;;;110.70;99.65;;;5.00;82.80;;;;;;5029488;28;20543;-74
2022/04/02 09:28:11;;;;;;;108.25;97.55;;;5.10;82.80;;;;;;4951118;28;20069;-73
2022/04/02 09:31:32;;;;;;;109.45;98.50;;;5.10;82.70;;;;;;5025566;28;20061;-73
2022/04/02 09:34:31;;;;;;;109.10;98.25;;;5.10;82.70;;;;;;4937471;28;20055;-73
2022/04/02 09:37:04;;;;;;;109.70;98.90;;;5.10;82.80;;;;;;5012819;28;20058;-74
2022/04/02 09:39:49;;;;;;;109.03;98.35;;;5.10;82.70;;;;;;5030892;28;20053;-74
2022/04/02 09:42:30;;;;;;;107.97;97.05;;;5.10;82.60;;;;;;5032417;28;20050;-74
2022/04/02 09:45:04;;;;;;;108.60;97.63;;;5.20;82.50;;;;;;5028361;28;20108;-74
2022/04/02 09:47:54;;;;;;;108.85;97.95;;;5.20;82.50;;;;;;5026113;28;20050;-74
2022/04/02 09:50:24;;;;;;;109.28;98.45;;;5.20;82.50;;;;;;5014370;28;20049;-73
2022/04/02 09:52:55;;;;;;;109.07;98.30;;;5.30;82.50;;;;;;5030015;28;20113;-74
2022/04/02 09:55:24;;;;;;;109.00;98.40;;;5.30;82.30;;;;;;5022806;28;20054;-74
2022/04/02 09:58:23;;;;;;;109.43;98.68;;;5.40;81.60;;;;;;5027300;28;20057;-74
2022/04/02 10:00:53;;;;;;;109.65;98.70;;;5.40;80.50;;;;;;5032345;28;20050;-74
2022/04/02 10:03:32;;;;;;;109.10;98.40;;;5.40;80.20;;;;;;5028209;28;20542;-74
2022/04/02 10:06:27;;;;;;;106.68;96.18;;;5.40;79.90;;;;;;5033100;28;20054;-73
2022/04/02 10:09:04;;;;;;;108.72;97.75;;;5.40;79.70;;;;;;5031143;28;20046;-73
2022/04/02 10:11:34;;;;;;;109.05;98.35;;;5.40;79.50;;;;;;5030266;28;20046;-73
2022/04/02 10:14:03;;;;;;;110.50;99.60;;;5.40;79.30;;;;;;5030274;28;20148;-73
2022/04/02 10:16:31;;;;;;;108.90;98.28;;;5.40;79.10;;;;;;5013516;28;20501;-73
2022/04/02 10:19:00;;;;;;;109.32;98.72;;;5.40;79.10;;;;;;5012900;28;20054;-74
2022/04/02 10:21:29;;;;;;;108.85;98.25;;;5.40;79.10;;;;;;5011987;28;20070;-74
2022/04/02 10:24:07;;;;;;;108.22;97.57;;;5.40;77.60;;;;;;5040373;28;20054;-74
2022/04/02 10:26:39;;;;;;;108.70;98.00;;;5.40;77.30;;;;;;5029104;28;20057;-75
2022/04/02 10:29:12;;;;;;;108.15;97.68;;;5.40;77.80;;;;;;5030871;28;20046;-74
2022/04/02 10:31:45;;;;;;;108.65;98.05;;;5.40;77.30;;;;;;5030802;28;20042;-74
2022/04/02 10:34:17;;;;;;;109.43;98.68;;;5.30;77.20;;;;;;5039138;28;20447;-74
2022/04/02 10:36:52;;;;;;;110.07;99.25;;;5.40;77.60;;;;;;5021921;28;20047;-74
2022/04/02 10:39:24;;;;;;;108.78;98.28;;;5.40;77.90;;;;;;5026778;28;20050;-74
2022/04/02 10:41:55;;;;;;;108.25;97.72;;;5.50;77.40;;;;;;5022200;28;20046;-75
2022/04/02 10:44:32;;;;;;;110.07;99.40;;;5.60;77.20;;;;;;5024573;28;20627;-74
2022/04/02 10:47:01;;;;;;;109.47;98.90;;;5.60;76.70;;;;;;5027371;28;20479;-75
2022/04/02 10:49:34;;;;;;;109.15;98.65;;;5.70;76.80;;;;;;5028123;28;20061;-74
2022/04/02 10:52:04;;;;;;;111.35;100.85;;;5.80;76.00;;;;;;5030117;28;20132;-76
2022/04/02 10:54:31;;;;;;;109.18;98.68;;;5.80;75.40;;;;;;5032493;28;20056;-75
2022/04/02 10:56:59;;;;;;;108.63;98.10;;;5.90;74.90;;;;;;5024565;28;20054;-75
2022/04/02 10:59:31;;;;;;;108.07;97.68;;;5.90;75.20;;;;;;5026161;28;20057;-74
2022/04/02 11:02:00;;;;;;;109.45;98.85;;;6.00;75.30;;;;;;5029597;28;20053;-74
2022/04/02 11:04:30;;;;;;;108.97;98.40;;;6.00;74.90;;;;;;5033902;28;20058;-75
2022/04/02 11:06:58;;;;;;;109.55;99.05;;;6.10;74.40;;;;;;5034455;28;20046;-75
2022/04/02 11:09:33;;;;;;;105.88;95.55;;;6.10;73.60;;;;;;5029308;28;20496;-78
2022/04/02 11:12:05;;;;;;;108.47;98.18;;;6.20;73.20;;;;;;5014689;28;20157;-74
2022/04/02 11:14:41;;;;;;;107.30;97.10;;;6.20;72.90;;;;;;5028191;28;20051;-76
2022/04/02 11:17:09;;;;;;;107.75;97.35;;;6.30;72.30;;;;;;5021383;28;20113;-77
2022/04/02 11:19:56;;;;;;;106.20;96.00;;;6.30;72.00;;;;;;5034775;28;20054;-76
2022/04/02 11:22:28;;;;;;;106.00;95.80;;;6.40;71.30;;;;;;5035654;28;20524;-77
2022/04/02 11:25:05;;;;;;;108.85;98.38;;;6.50;71.30;;;;;;5034558;28;20050;-77
2022/04/02 11:27:36;;;;;;;;;;;6.50;70.50;;;;;;5034524;28;20050;-77
2022/04/02 11:30:06;;;;;;;108.40;97.80;;;6.60;72.70;;;;;;5034703;28;20444;-76
2022/04/02 11:32:43;;;;;;;108.97;98.55;;;6.60;72.00;;;;;;5035658;28;20056;-77
2022/04/02 11:35:14;;;;;;;108.45;98.05;;;6.70;72.40;;;;;;5035038;28;20056;-76
2022/04/02 11:38:00;;;;;;;106.88;96.68;;;6.70;72.30;;;;;;5036082;28;20104;-76
2022/04/02 11:40:31;;;;;;;109.00;98.60;;;6.70;71.60;;;;;;5034736;28;20133;-76
2022/04/02 11:43:01;;;;;;;107.50;97.30;;;6.70;71.30;;;;;;5034899;28;20050;-76
2022/04/02 11:45:29;;;;;;;108.13;97.82;;;6.70;70.80;;;;;;5034538;28;20046;-77
2022/04/02 11:48:00;;;;;;;108.82;98.35;;;6.70;70.90;;;;;;5035992;28;20100;-76
2022/04/02 11:50:30;;;;;;;107.60;97.00;;;6.70;71.20;;;;;;5034646;28;20061;-76
2022/04/02 11:52:59;;;;;;;110.07;99.47;;;6.70;71.90;;;;;;5034460;28;20057;-76
2022/04/02 11:55:28;;;;;;;106.30;96.07;;;6.60;72.50;;;;;;5034003;28;20053;-77
2022/04/02 11:58:07;;;;;;;107.00;96.80;;;6.60;73.30;;;;;;5035420;28;20050;-76
2022/04/02 12:00:37;;;;;;;107.35;96.95;;;6.70;73.70;;;;;;5035801;28;20124;-76
2022/04/02 12:03:06;;;;;;;108.10;97.68;;;6.70;73.50;;;;;;5035575;28;20152;-76
2022/04/02 12:05:40;;;;;;;107.25;96.88;;;6.70;72.90;;;;;;5034161;28;20058;-76
2022/04/02 12:08:08;;;;;;;106.93;96.68;;;6.60;72.40;;;;;;5035659;28;20132;-76
2022/04/02 12:10:44;;;;;;;106.50;96.20;;;6.70;72.50;;;;;;5035517;28;20056;-76
2022/04/02 12:13:13;;;;;;;106.20;95.82;;;6.70;72.80;;;;;;5035368;28;20060;-76
2022/04/02 12:15:40;;;;;;;107.75;97.43;;;6.70;72.50;;;;;;5033903;28;20101;-76
2022/04/02 12:18:09;;;;;;;106.72;96.63;;;6.80;72.40;;;;;;5035290;28;20492;-76
2022/04/02 12:20:37;;;;;;;106.57;96.32;;;6.90;71.40;;;;;;5035281;28;20046;-75
2022/04/02 12:23:12;;;;;;;105.97;95.75;;;7.00;70.90;;;;;;5035398;28;20050;-76
2022/04/02 12:25:41;;;;;;;108.22;97.93;;;7.10;69.50;;;;;;5035380;28;20054;-76
2022/04/02 12:28:15;;;;;;;106.70;96.60;;;7.10;67.10;;;;;;5033658;28;20061;-77
2022/04/02 12:30:46;;;;;;;107.68;97.47;;;7.20;67.10;;;;;;5031433;28;20137;-76
2022/04/02 12:33:16;;;;;;;107.10;96.70;;;7.20;67.20;;;;;;5032249;28;20053;-75
2022/04/02 12:35:47;;;;;;;108.18;97.85;;;7.30;67.10;;;;;;5028433;28;20053;-76
2022/04/02 12:38:26;;;;;;;108.50;97.88;;;7.40;67.40;;;;;;5048256;28;20137;-76
2022/04/02 12:40:56;;;;;;;106.45;96.15;;;7.40;67.50;;;;;;5033666;28;20058;-76
2022/04/02 12:43:30;;;;;;;107.65;97.35;;;7.50;68.20;;;;;;5032418;28;20050;-76
2022/04/02 12:45:58;;;;;;;107.85;97.57;;;7.60;67.20;;;;;;5029868;28;20520;-76
2022/04/02 12:48:26;;;;;;;106.85;96.70;;;7.70;66.70;;;;;;5035073;28;20046;-75
2022/04/02 12:50:56;;;;;;;106.57;96.35;;;7.80;66.20;;;;;;5031164;28;20050;-75
2022/04/02 12:53:31;;;;;;;108.07;97.75;;;7.90;65.70;;;;;;5031130;28;20060;-75
2022/04/02 12:55:59;;;;;;;106.80;96.80;;;7.90;64.90;;;;;;5033039;28;20521;-76
2022/04/02 12:58:35;;;;;;;106.80;96.85;;;7.90;64.40;;;;;;5029295;28;20054;-76